createdAt,value
2019-04-12T00:02:18.435Z,1.90
2019-04-12T00:04:49.655Z,2.00
2019-04-12T00:07:20.262Z,1.90
2019-04-12T00:09:51.193Z,1.90
2019-04-12T00:12:21.901Z,1.90
2019-04-12T00:14:52.851Z,1.90
2019-04-12T00:17:23.471Z,1.90
2019-04-12T00:19:54.411Z,1.90
2019-04-12T00:22:25.040Z,2.00
2019-04-12T00:24:55.929Z,1.90
2019-04-12T00:27:27.296Z,1.90
2019-04-12T00:29:58.515Z,1.80
2019-04-12T00:32:29.120Z,1.90
2019-04-12T00:34:59.697Z,1.90
2019-04-12T00:37:30.365Z,1.90
2019-04-12T00:40:01.410Z,1.90
2019-04-12T00:42:33.151Z,1.90
2019-04-12T00:45:05.314Z,1.90
2019-04-12T00:47:39.501Z,1.90
2019-04-12T00:50:11.289Z,1.90
2019-04-12T00:52:42.699Z,1.90
2019-04-12T00:55:13.170Z,1.90
2019-04-12T00:57:46.169Z,1.80
2019-04-12T01:00:18.085Z,1.80
2019-04-12T01:02:59.523Z,1.70
2019-04-12T01:05:34.469Z,1.70
2019-04-12T01:08:08.990Z,1.80
2019-04-12T01:10:41.297Z,1.70
2019-04-12T01:13:12.434Z,1.70
2019-04-12T01:15:43.010Z,1.80
2019-04-12T01:18:13.635Z,1.80
2019-04-12T01:20:44.498Z,1.80
2019-04-12T01:23:15.596Z,1.80
2019-04-12T01:25:46.186Z,1.80
2019-04-12T01:28:18.110Z,1.80
2019-04-12T01:30:49.410Z,1.70
2019-04-12T01:33:20.538Z,1.70
2019-04-12T01:35:51.152Z,1.70
2019-04-12T01:38:21.861Z,1.70
2019-04-12T01:40:52.436Z,1.70
2019-04-12T01:43:23.121Z,1.70
2019-04-12T01:45:53.706Z,1.70
2019-04-12T01:48:24.651Z,1.70
2019-04-12T01:50:55.563Z,1.60
2019-04-12T01:53:26.453Z,1.60
2019-04-12T01:55:57.755Z,1.50
2019-04-12T01:58:29.023Z,1.50
2019-04-12T02:00:59.676Z,1.40
2019-04-12T02:03:30.900Z,1.40
2019-04-12T02:06:01.901Z,1.30
2019-04-12T02:08:32.873Z,1.30
2019-04-12T02:11:03.999Z,1.30
2019-04-12T02:13:34.603Z,1.30
2019-04-12T02:16:05.303Z,1.30
2019-04-12T02:18:36.221Z,1.20
2019-04-12T02:21:06.854Z,1.20
2019-04-12T02:23:38.200Z,1.20
2019-04-12T02:26:09.499Z,1.10
2019-04-12T02:28:55.812Z,1.10
2019-04-12T02:31:34.242Z,1.10
2019-04-12T02:34:04.831Z,1.10
2019-04-12T02:36:35.436Z,1.00
2019-04-12T02:39:08.300Z,1.00
2019-04-12T02:41:41.353Z,1.00
2019-04-12T02:44:14.198Z,0.90
2019-04-12T02:47:07.169Z,0.80
2019-04-12T02:50:02.101Z,0.80
2019-04-12T02:52:46.589Z,0.70
2019-04-12T02:55:39.986Z,0.70
2019-04-12T02:58:17.938Z,0.70
2019-04-12T03:00:53.834Z,0.70
2019-04-12T03:03:24.636Z,0.70
2019-04-12T03:05:56.720Z,0.70
2019-04-12T03:08:27.674Z,0.70
2019-04-12T03:11:00.451Z,0.70
2019-04-12T03:13:32.889Z,0.60
2019-04-12T03:16:05.410Z,0.60
2019-04-12T03:18:36.799Z,0.60
2019-04-12T03:21:07.560Z,0.60
2019-04-12T03:23:39.057Z,0.50
2019-04-12T03:26:10.566Z,0.50
2019-04-12T03:28:41.483Z,0.50
2019-04-12T03:31:12.687Z,0.50
2019-04-12T03:33:44.145Z,0.40
2019-04-12T03:36:15.484Z,0.40
2019-04-12T03:38:46.389Z,0.40
2019-04-12T03:41:17.058Z,0.40
2019-04-12T03:43:48.192Z,0.40
2019-04-12T03:46:19.455Z,0.30
2019-04-12T03:48:50.132Z,0.30
2019-04-12T03:51:21.280Z,0.30
2019-04-12T03:53:52.857Z,0.30
2019-04-12T03:56:24.215Z,0.20
2019-04-12T03:59:13.940Z,0.20
2019-04-12T04:01:45.065Z,0.10
2019-04-12T04:04:16.412Z,0.10
2019-04-12T04:06:47.378Z,0.00
2019-04-12T04:09:18.983Z,0.10
2019-04-12T04:11:49.924Z,0.00
2019-04-12T04:14:22.056Z,0.00
2019-04-12T04:16:59.431Z,-0.10
2019-04-12T04:19:36.079Z,0.00
2019-04-12T04:22:07.260Z,-0.10
2019-04-12T04:24:40.588Z,-0.10
2019-04-12T04:27:24.424Z,-0.10
2019-04-12T04:30:18.465Z,0.00
2019-04-12T04:32:53.505Z,0.00
2019-04-12T04:35:24.499Z,0.00
2019-04-12T04:38:14.284Z,-0.10
2019-04-12T04:40:57.124Z,-0.10
2019-04-12T04:43:28.047Z,-0.10
2019-04-12T04:45:59.178Z,-0.10
2019-04-12T04:48:30.715Z,-0.20
2019-04-12T04:51:01.606Z,-0.10
2019-04-12T04:53:32.250Z,-0.20
2019-04-12T04:56:02.982Z,-0.20
2019-04-12T04:58:34.028Z,-0.20
2019-04-12T05:01:05.126Z,-0.10
2019-04-12T05:03:37.039Z,-0.10
2019-04-12T05:06:08.182Z,-0.10
2019-04-12T05:08:39.222Z,0.00
2019-04-12T05:11:10.208Z,0.00
2019-04-12T05:13:41.385Z,0.00
2019-04-12T05:16:12.294Z,0.00
2019-04-12T05:18:43.072Z,0.00
2019-04-12T05:21:13.771Z,0.00
2019-04-12T05:23:44.852Z,0.10
2019-04-12T05:26:16.001Z,0.10
2019-04-12T05:28:46.938Z,0.20
2019-04-12T05:31:17.543Z,0.20
2019-04-12T05:33:49.841Z,0.20
2019-04-12T05:36:21.352Z,0.20
2019-04-12T05:38:52.392Z,0.20
2019-04-12T05:41:22.993Z,0.30
2019-04-12T05:43:56.423Z,0.40
2019-04-12T05:46:51.376Z,0.40
2019-04-12T05:49:56.124Z,0.50
2019-04-12T05:52:26.742Z,0.60
2019-04-12T05:54:57.470Z,0.70
2019-04-12T05:57:28.050Z,0.80
2019-04-12T05:59:59.167Z,0.90
2019-04-12T06:02:41.649Z,0.90
2019-04-12T06:05:12.663Z,0.90
2019-04-12T06:07:43.382Z,1.00
2019-04-12T06:10:14.603Z,1.00
2019-04-12T06:12:46.739Z,1.10
2019-04-12T06:15:17.812Z,1.10
2019-04-12T06:17:50.357Z,1.20
2019-04-12T06:20:42.713Z,1.30
2019-04-12T06:23:13.370Z,1.30
2019-04-12T06:25:51.527Z,1.40
2019-04-12T06:28:22.124Z,1.50
2019-04-12T06:30:54.930Z,1.60
2019-04-12T06:33:25.541Z,1.70
2019-04-12T06:35:57.222Z,1.70
2019-04-12T06:38:27.807Z,1.90
2019-04-12T06:40:58.456Z,2.10
2019-04-12T06:43:29.035Z,2.10
2019-04-12T06:45:59.709Z,2.10
2019-04-12T06:48:30.712Z,2.20
2019-04-12T06:51:04.133Z,2.30
2019-04-12T06:53:34.705Z,2.50
2019-04-12T06:56:13.202Z,2.60
2019-04-12T06:58:43.775Z,2.60
2019-04-12T07:01:42.515Z,2.60
2019-04-12T07:04:38.054Z,2.80
2019-04-12T07:07:08.673Z,2.80
2019-04-12T07:09:39.301Z,2.80
2019-04-12T07:12:10.211Z,2.90
2019-04-12T07:14:41.091Z,3.00
2019-04-12T07:17:11.707Z,2.90
2019-04-12T07:19:42.297Z,3.10
2019-04-12T07:22:12.964Z,3.30
2019-04-12T07:24:43.559Z,3.20
2019-04-12T07:27:14.230Z,3.20
2019-04-12T07:29:45.495Z,3.30
2019-04-12T07:32:16.219Z,3.40
2019-04-12T07:34:46.885Z,3.40
2019-04-12T07:37:17.569Z,3.50
2019-04-12T07:39:48.176Z,3.40
2019-04-12T07:42:19.110Z,3.40
2019-04-12T07:44:49.691Z,3.50
2019-04-12T07:47:20.773Z,3.40
2019-04-12T07:49:52.578Z,3.50
2019-04-12T07:52:25.366Z,3.70
2019-04-12T07:55:12.482Z,3.50
2019-04-12T07:58:00.703Z,3.50
2019-04-12T08:01:05.968Z,3.50
2019-04-12T08:03:55.521Z,3.60
2019-04-12T08:06:36.386Z,3.60
2019-04-12T08:09:09.430Z,3.80
2019-04-12T08:11:40.440Z,3.90
2019-04-12T08:14:11.047Z,3.80
2019-04-12T08:16:41.684Z,3.80
2019-04-12T08:19:12.244Z,3.90
2019-04-12T08:21:43.000Z,4.00
2019-04-12T08:24:13.598Z,4.00
2019-04-12T08:26:44.203Z,4.00
2019-04-12T08:29:14.833Z,4.30
2019-04-12T08:31:45.824Z,4.30
2019-04-12T08:34:16.430Z,4.30
2019-04-12T08:36:47.019Z,4.30
2019-04-12T08:39:17.619Z,4.40
2019-04-12T08:41:48.277Z,4.50
2019-04-12T08:44:18.910Z,4.60
2019-04-12T08:46:49.569Z,4.50
2019-04-12T08:49:20.165Z,4.70
2019-04-12T08:51:50.750Z,4.70
2019-04-12T08:54:21.372Z,4.90
2019-04-12T08:56:52.012Z,4.90
2019-04-12T08:59:22.899Z,4.80
2019-04-12T09:01:53.478Z,5.00
2019-04-12T09:04:24.587Z,5.10
2019-04-12T09:06:55.181Z,5.10
2019-04-12T09:09:25.976Z,5.10
2019-04-12T09:11:56.634Z,5.10
2019-04-12T09:14:27.621Z,5.10
2019-04-12T09:16:58.285Z,5.10
2019-04-12T09:19:46.751Z,5.30
2019-04-12T09:22:42.487Z,5.40
2019-04-12T09:25:31.675Z,5.30
2019-04-12T09:28:02.639Z,5.40
2019-04-12T09:30:33.837Z,5.70
2019-04-12T09:33:04.534Z,5.60
2019-04-12T09:35:35.297Z,5.60
2019-04-12T09:38:05.881Z,5.70
2019-04-12T09:40:36.621Z,5.60
2019-04-12T09:43:07.495Z,5.80
2019-04-12T09:45:38.167Z,6.00
2019-04-12T09:48:09.119Z,6.00
2019-04-12T09:50:39.760Z,5.90
2019-04-12T09:53:10.453Z,6.00
2019-04-12T09:55:41.031Z,6.30
2019-04-12T09:58:11.860Z,6.00
2019-04-12T10:00:42.925Z,6.10
2019-04-12T10:03:13.946Z,6.20
2019-04-12T10:05:45.043Z,6.00
2019-04-12T10:08:16.332Z,6.30
2019-04-12T10:10:49.392Z,6.50
2019-04-12T10:13:19.265Z,6.50
2019-04-12T10:15:49.957Z,6.50
2019-04-12T10:18:20.906Z,6.70
2019-04-12T10:20:51.843Z,7.00
2019-04-12T10:23:22.835Z,7.00
2019-04-12T10:25:53.500Z,6.90
2019-04-12T10:28:24.409Z,7.00
2019-04-12T10:30:55.394Z,7.00
2019-04-12T10:33:26.323Z,7.00
2019-04-12T10:35:57.323Z,7.20
2019-04-12T10:38:28.209Z,7.20
2019-04-12T10:40:58.807Z,7.20
2019-04-12T10:43:29.395Z,7.20
2019-04-12T10:46:09.802Z,7.50
2019-04-12T10:49:05.755Z,7.40
2019-04-12T10:52:01.256Z,7.60
2019-04-12T10:54:49.709Z,7.50
2019-04-12T10:57:20.282Z,7.40
2019-04-12T10:59:50.894Z,7.40
2019-04-12T11:02:22.249Z,7.60
2019-04-12T11:04:52.916Z,7.60
2019-04-12T11:07:23.793Z,7.70
2019-04-12T11:09:54.378Z,7.60
2019-04-12T11:12:24.964Z,7.80
2019-04-12T11:14:55.563Z,7.80
2019-04-12T11:17:26.171Z,7.80
2019-04-12T11:19:57.086Z,7.80
2019-04-12T11:22:27.995Z,7.90
2019-04-12T11:24:58.884Z,7.60
2019-04-12T11:27:29.826Z,7.90
2019-04-12T11:30:00.762Z,8.10
2019-04-12T11:32:31.351Z,8.00
2019-04-12T11:35:02.038Z,8.00
2019-04-12T11:37:32.623Z,8.10
2019-04-12T11:40:03.298Z,7.90
2019-04-12T11:42:34.223Z,7.60
2019-04-12T11:45:05.758Z,7.90
2019-04-12T11:47:36.340Z,8.20
2019-04-12T11:50:07.261Z,8.10
2019-04-12T11:52:38.227Z,8.30
2019-04-12T11:55:09.063Z,8.00
2019-04-12T11:57:39.696Z,8.20
2019-04-12T12:00:14.125Z,8.30
2019-04-12T12:03:00.065Z,8.30
2019-04-12T12:05:40.610Z,8.40
2019-04-12T12:08:35.989Z,8.10
2019-04-12T12:11:29.431Z,7.80
2019-04-12T12:14:17.728Z,7.90
2019-04-12T12:17:16.077Z,8.10
2019-04-12T12:19:46.758Z,8.30
2019-04-12T12:22:17.451Z,8.40
2019-04-12T12:24:48.046Z,8.50
2019-04-12T12:27:18.668Z,8.60
2019-04-12T12:29:49.221Z,8.30
2019-04-12T12:32:19.811Z,8.10
2019-04-12T12:34:51.106Z,8.40
2019-04-12T12:37:21.703Z,8.40
2019-04-12T12:39:53.101Z,8.20
2019-04-12T12:42:23.845Z,8.60
2019-04-12T12:44:54.637Z,8.60
2019-04-12T12:47:25.224Z,8.60
2019-04-12T12:49:55.883Z,8.60
2019-04-12T12:52:26.483Z,8.50
2019-04-12T12:54:57.179Z,8.20
2019-04-12T12:57:27.753Z,8.10
2019-04-12T12:59:59.043Z,8.30
2019-04-12T13:02:29.651Z,8.40
2019-04-12T13:05:00.248Z,8.50
2019-04-12T13:07:31.383Z,8.90
2019-04-12T13:10:03.605Z,8.50
2019-04-12T13:12:34.762Z,8.50
2019-04-12T13:15:06.030Z,8.70
2019-04-12T13:17:37.568Z,8.70
2019-04-12T13:20:08.217Z,8.90
2019-04-12T13:22:39.206Z,8.70
2019-04-12T13:25:10.174Z,8.70
2019-04-12T13:27:41.523Z,8.60
2019-04-12T13:30:36.467Z,9.00
2019-04-12T13:33:13.892Z,9.20
2019-04-12T13:36:01.717Z,9.50
2019-04-12T13:38:41.142Z,9.60
2019-04-12T13:41:11.707Z,9.60
2019-04-12T13:43:42.333Z,9.50
2019-04-12T13:46:13.382Z,9.10
2019-04-12T13:48:44.369Z,8.80
2019-04-12T13:51:14.959Z,8.90
2019-04-12T13:53:48.102Z,8.90
2019-04-12T13:56:18.163Z,9.20
2019-04-12T13:58:48.767Z,8.70
2019-04-12T14:01:19.337Z,8.20
2019-04-12T14:03:50.361Z,8.40
2019-04-12T14:06:21.335Z,9.00
2019-04-12T14:08:52.029Z,8.90
2019-04-12T14:11:22.933Z,8.90
2019-04-12T14:13:53.597Z,8.50
2019-04-12T14:16:24.266Z,8.40
2019-04-12T14:18:54.951Z,8.30
2019-04-12T14:21:25.531Z,8.60
2019-04-12T14:23:56.554Z,8.50
2019-04-12T14:26:27.542Z,8.50
2019-04-12T14:28:58.226Z,8.70
2019-04-12T14:31:33.529Z,8.50
2019-04-12T14:34:23.020Z,8.70
2019-04-12T14:36:57.239Z,8.60
2019-04-12T14:39:27.796Z,8.70
2019-04-12T14:41:58.478Z,8.40
2019-04-12T14:44:43.292Z,8.30
2019-04-12T14:47:20.083Z,8.50
2019-04-12T14:49:50.686Z,8.60
2019-04-12T14:52:21.714Z,8.50
2019-04-12T14:54:52.304Z,8.60
2019-04-12T14:57:22.894Z,8.60
2019-04-12T14:59:53.583Z,8.60
2019-04-12T15:02:26.199Z,8.30
2019-04-12T15:04:57.220Z,8.30
2019-04-12T15:07:27.809Z,8.10
2019-04-12T15:09:58.817Z,8.40
2019-04-12T15:12:29.414Z,8.50
2019-04-12T15:15:00.375Z,8.10
2019-04-12T15:17:30.963Z,7.70
2019-04-12T15:20:01.614Z,7.80
2019-04-12T15:22:32.197Z,7.90
2019-04-12T15:25:03.099Z,7.90
2019-04-12T15:27:34.027Z,7.80
2019-04-12T15:30:05.498Z,7.50
2019-04-12T15:32:36.096Z,7.30
2019-04-12T15:35:07.024Z,7.20
2019-04-12T15:37:37.622Z,7.40
2019-04-12T15:40:08.326Z,7.40
2019-04-12T15:42:38.921Z,7.50
2019-04-12T15:45:10.449Z,7.40
2019-04-12T15:47:41.738Z,7.00
2019-04-12T15:50:12.446Z,7.10
2019-04-12T15:52:43.038Z,7.20
2019-04-12T15:55:13.800Z,7.20
2019-04-12T15:57:44.434Z,7.30
2019-04-12T16:00:39.634Z,7.40
2019-04-12T16:03:10.621Z,7.30
2019-04-12T16:05:41.390Z,7.50
2019-04-12T16:08:12.355Z,7.40
2019-04-12T16:10:48.436Z,7.50
2019-04-12T16:14:11.073Z,7.50
2019-04-12T16:17:51.262Z,7.20
2019-04-12T16:20:21.975Z,7.10
2019-04-12T16:22:52.563Z,6.90
2019-04-12T16:25:23.214Z,7.00
2019-04-12T16:27:58.109Z,6.90
2019-04-12T16:30:44.815Z,6.80
2019-04-12T16:33:40.328Z,6.80
2019-04-12T16:36:17.383Z,6.70
2019-04-12T16:38:47.986Z,6.60
2019-04-12T16:41:18.982Z,6.60
2019-04-12T16:43:49.927Z,6.50
2019-04-12T16:46:20.609Z,6.40
2019-04-12T16:48:51.831Z,6.40
2019-04-12T16:51:22.572Z,6.40
2019-04-12T16:53:53.153Z,6.30
2019-04-12T16:56:24.221Z,6.30
2019-04-12T16:58:54.814Z,6.40
2019-04-12T17:01:36.267Z,6.30
2019-04-12T17:03:58.330Z,6.20
2019-04-12T17:06:29.013Z,6.00
2019-04-12T17:08:59.916Z,5.80
2019-04-12T17:11:31.160Z,5.80
2019-04-12T17:14:01.785Z,5.70
2019-04-12T17:16:32.458Z,5.60
2019-04-12T17:19:03.047Z,5.60
2019-04-12T17:21:33.749Z,5.50
2019-04-12T17:24:04.339Z,5.50
2019-04-12T17:26:35.083Z,5.50
2019-04-12T17:29:06.033Z,5.50
2019-04-12T17:31:48.462Z,5.50
2019-04-12T17:34:09.122Z,5.50
2019-04-12T17:36:39.774Z,5.50
2019-04-12T17:39:11.228Z,5.40
2019-04-12T17:41:42.716Z,5.30
2019-04-12T17:44:13.314Z,5.20
2019-04-12T17:46:43.933Z,5.10
2019-04-12T17:49:24.289Z,5.10
2019-04-12T17:51:59.610Z,5.10
2019-04-12T17:54:49.859Z,5.10
2019-04-12T17:57:20.445Z,5.00
2019-04-12T17:59:51.804Z,5.00
2019-04-12T18:02:31.546Z,5.00
2019-04-12T18:05:10.426Z,5.00
2019-04-12T18:07:41.020Z,5.00
2019-04-12T18:10:12.448Z,4.90
2019-04-12T18:12:43.642Z,4.80
2019-04-12T18:15:17.205Z,4.80
2019-04-12T18:17:48.367Z,4.80
2019-04-12T18:20:19.055Z,4.80
2019-04-12T18:22:49.636Z,4.70
2019-04-12T18:25:20.587Z,4.70
2019-04-12T18:27:51.382Z,4.70
2019-04-12T18:30:22.746Z,4.70
2019-04-12T18:32:53.379Z,4.60
2019-04-12T18:35:23.984Z,4.60
2019-04-12T18:37:54.620Z,4.60
2019-04-12T18:40:25.603Z,4.60
2019-04-12T18:42:56.735Z,4.60
2019-04-12T18:45:27.735Z,4.60
2019-04-12T18:47:58.760Z,4.50
2019-04-12T18:50:29.425Z,4.60
2019-04-12T18:53:00.362Z,4.60
2019-04-12T18:55:31.323Z,4.60
2019-04-12T18:58:02.322Z,4.60
2019-04-12T19:00:33.024Z,4.50
2019-04-12T19:03:04.180Z,4.40
2019-04-12T19:05:35.529Z,4.40
2019-04-12T19:08:06.313Z,4.30
2019-04-12T19:10:37.043Z,4.30
2019-04-12T19:13:07.859Z,4.30
2019-04-12T19:15:39.031Z,4.20
2019-04-12T19:18:10.092Z,4.20
2019-04-12T19:20:41.010Z,4.10
2019-04-12T19:23:11.623Z,4.10
2019-04-12T19:25:42.344Z,4.10
2019-04-12T19:28:16.354Z,4.00
2019-04-12T19:30:50.406Z,4.00
2019-04-12T19:33:43.142Z,4.00
2019-04-12T19:36:33.171Z,3.90
2019-04-12T19:39:35.095Z,4.00
2019-04-12T19:42:06.060Z,4.00
2019-04-12T19:44:37.075Z,3.90
2019-04-12T19:47:07.794Z,3.90
2019-04-12T19:49:38.398Z,3.80
2019-04-12T19:52:09.143Z,3.80
2019-04-12T19:54:39.803Z,3.80
2019-04-12T19:57:10.394Z,3.80
2019-04-12T19:59:41.310Z,3.80
2019-04-12T20:02:12.090Z,3.80
2019-04-12T20:04:42.772Z,3.70
2019-04-12T20:07:13.403Z,3.80
2019-04-12T20:09:44.405Z,3.80
2019-04-12T20:12:15.042Z,3.70
2019-04-12T20:14:45.771Z,3.70
2019-04-12T20:17:16.573Z,3.60
2019-04-12T20:19:47.156Z,3.60
2019-04-12T20:22:18.292Z,3.60
2019-04-12T20:24:48.898Z,3.60
2019-04-12T20:27:19.970Z,3.60
2019-04-12T20:29:50.950Z,3.50
2019-04-12T20:32:22.344Z,3.50
2019-04-12T20:34:53.648Z,3.50
2019-04-12T20:37:24.238Z,3.50
2019-04-12T20:39:55.314Z,3.50
2019-04-12T20:42:25.916Z,3.40
2019-04-12T20:44:58.759Z,3.50
2019-04-12T20:47:30.921Z,3.50
2019-04-12T20:50:01.933Z,3.40
2019-04-12T20:52:32.683Z,3.30
2019-04-12T20:55:03.343Z,3.30
2019-04-12T20:57:34.220Z,3.20
2019-04-12T21:00:05.452Z,3.20
2019-04-12T21:02:40.649Z,3.20
2019-04-12T21:05:09.412Z,3.10
2019-04-12T21:07:40.402Z,3.10
2019-04-12T21:10:11.924Z,3.10
2019-04-12T21:12:42.612Z,3.00
2019-04-12T21:15:13.830Z,3.10
2019-04-12T21:17:44.801Z,3.10
2019-04-12T21:20:15.638Z,3.00
2019-04-12T21:22:46.357Z,3.00
2019-04-12T21:25:17.286Z,3.00
2019-04-12T21:27:48.320Z,2.90
2019-04-12T21:30:25.532Z,2.90
2019-04-12T21:32:53.275Z,2.90
2019-04-12T21:35:24.707Z,2.80
2019-04-12T21:37:56.691Z,2.90
2019-04-12T21:40:27.489Z,2.80
2019-04-12T21:42:58.433Z,2.70
2019-04-12T21:45:29.238Z,2.70
2019-04-12T21:47:59.818Z,2.70
2019-04-12T21:50:30.985Z,2.70
2019-04-12T21:53:02.292Z,2.80
2019-04-12T21:55:33.161Z,2.80
2019-04-12T21:58:03.838Z,2.80
2019-04-12T22:00:56.234Z,2.70
2019-04-12T22:03:27.328Z,2.70
2019-04-12T22:05:58.326Z,2.70
2019-04-12T22:08:29.235Z,2.70
2019-04-12T22:11:00.354Z,2.60
2019-04-12T22:13:31.612Z,2.60
2019-04-12T22:16:02.782Z,2.60
2019-04-12T22:18:34.296Z,2.60
2019-04-12T22:21:04.881Z,2.60
2019-04-12T22:23:35.542Z,2.60
2019-04-12T22:26:06.503Z,2.60
2019-04-12T22:28:37.112Z,2.50
2019-04-12T22:31:08.698Z,2.40
2019-04-12T22:33:39.244Z,2.50
2019-04-12T22:36:09.938Z,2.40
2019-04-12T22:38:41.191Z,2.40
2019-04-12T22:41:12.067Z,2.40
2019-04-12T22:43:43.276Z,2.40
2019-04-12T22:46:14.215Z,2.40
2019-04-12T22:48:45.084Z,2.30
2019-04-12T22:51:15.688Z,2.30
2019-04-12T22:53:47.028Z,2.40
2019-04-12T22:56:17.904Z,2.40
2019-04-12T22:58:49.365Z,2.30
2019-04-12T23:01:19.963Z,2.30
2019-04-12T23:03:51.031Z,2.30
2019-04-12T23:06:21.707Z,2.30
2019-04-12T23:08:52.333Z,2.20
2019-04-12T23:11:23.073Z,2.30
2019-04-12T23:13:53.645Z,2.30
2019-04-12T23:16:24.334Z,2.30
2019-04-12T23:18:55.555Z,2.30
2019-04-12T23:21:26.531Z,2.30
2019-04-12T23:23:57.106Z,2.30
2019-04-12T23:26:28.166Z,2.30
2019-04-12T23:28:58.964Z,2.20
2019-04-12T23:31:33.031Z,2.20
2019-04-12T23:34:17.285Z,2.20
2019-04-12T23:36:45.089Z,2.20
2019-04-12T23:39:15.789Z,2.20
2019-04-12T23:41:46.375Z,2.10
2019-04-12T23:44:17.039Z,2.20
2019-04-12T23:46:47.628Z,2.20
2019-04-12T23:49:18.796Z,2.20
2019-04-12T23:51:49.789Z,2.20
2019-04-12T23:54:21.046Z,2.20
2019-04-12T23:56:51.951Z,2.20
2019-04-12T23:59:22.566Z,2.20
